Time;durP1;ratioP1;P1;durP2;ratioP2;P2;SDS_P1;SDS_P2;PMS_P1;PMS_P2;Temp;Humidity;BMP_temperature;BMP_pressure;BME280_temperature;BME280_humidity;BME280_pressure;Samples;Min_cycle;Max_cycle;Signal;HPM_P1;HPM_P2
2022/06/30 00:00:44;;;;;;;4.20;3.78;;;;;;;18.89;65.36;99117.75;4945219;29;20058;-44
2022/06/30 00:03:11;;;;;;;9.90;3.50;;;;;;;19.13;64.23;99121.75;4945765;29;20063;-45
2022/06/30 00:05:38;;;;;;;7.60;3.55;;;;;;;19.18;63.80;99111.47;4945101;29;20152;-48
2022/06/30 00:08:06;;;;;;;6.35;3.25;;;;;;;19.20;63.79;99109.50;4945327;29;20051;-49
2022/06/30 00:10:34;;;;;;;4.57;3.47;;;;;;;19.16;64.07;99103.59;4943555;29;20094;-49
2022/06/30 00:13:00;;;;;;;8.35;3.65;;;;;;;19.18;64.81;99108.78;4945608;29;20051;-49
2022/06/30 00:15:27;;;;;;;6.32;3.70;;;;;;;19.18;64.13;99114.97;4944905;29;20058;-48
2022/06/30 00:17:53;;;;;;;6.43;3.42;;;;;;;19.11;64.21;99118.38;4934237;29;20503;-48
2022/06/30 00:20:20;;;;;;;4.25;3.28;;;;;;;19.18;64.29;99116.81;4944607;29;20084;-50
2022/06/30 00:22:47;;;;;;;6.70;4.00;;;;;;;19.18;64.42;99114.13;4945356;29;20053;-49
2022/06/30 00:25:14;;;;;;;5.22;3.83;;;;;;;19.06;64.24;99113.47;4930136;29;20066;-47
2022/06/30 00:27:42;;;;;;;6.72;3.75;;;;;;;18.88;64.87;99110.72;4943469;29;20051;-46
2022/06/30 00:30:09;;;;;;;4.40;3.70;;;;;;;18.85;64.73;99117.19;4943745;29;20102;-47
2022/06/30 00:32:36;;;;;;;4.25;3.67;;;;;;;18.93;64.88;99119.16;4925079;29;20480;-47
2022/06/30 00:35:03;;;;;;;8.02;3.38;;;;;;;18.97;64.19;99115.19;4940788;29;20133;-46
2022/06/30 00:37:30;;;;;;;4.60;3.67;;;;;;;18.96;64.25;99108.16;4940774;29;20047;-53
2022/06/30 00:39:56;;;;;;;7.47;4.38;;;;;;;18.86;64.69;99107.34;4929630;29;20051;-48
2022/06/30 00:42:23;;;;;;;4.75;3.60;;;;;;;18.83;64.74;99111.16;4945064;29;20062;-47
2022/06/30 00:44:51;;;;;;;5.25;3.38;;;;;;;18.88;64.44;99102.72;4945344;29;20051;-47
2022/06/30 00:47:18;;;;;;;5.22;3.75;;;;;;;18.83;64.28;99103.16;4945155;29;20055;-66
2022/06/30 00:49:45;;;;;;;5.70;3.78;;;;;;;18.82;64.30;99103.28;4945333;28;20055;-67
2022/06/30 00:52:13;;;;;;;6.25;3.85;;;;;;;18.74;64.63;99105.81;4947718;29;20471;-68
2022/06/30 00:54:42;;;;;;;4.65;3.97;;;;;;;18.64;64.99;99105.84;4947469;29;20392;-67
2022/06/30 00:57:10;;;;;;;5.82;3.63;;;;;;;18.57;65.18;99104.72;4947138;29;20073;-67
2022/06/30 00:59:39;;;;;;;4.55;3.78;;;;;;;18.57;65.00;99108.22;4947122;29;20130;-68
2022/06/30 01:02:08;;;;;;;6.85;3.85;;;;;;;18.50;65.41;99108.94;4941776;29;20753;-68
2022/06/30 01:04:35;;;;;;;6.05;4.10;;;;;;;18.37;65.88;99101.25;4948075;29;20164;-68
2022/06/30 01:07:03;;;;;;;9.35;3.47;;;;;;;18.31;66.36;99102.66;4939737;29;20130;-68
2022/06/30 01:15:01;;;;;;;4.75;4.15;;;;;;;18.15;67.07;99107.72;4948084;29;20561;-68
2022/06/30 01:17:29;;;;;;;9.23;4.00;;;;;;;18.07;67.18;99105.75;4947723;29;20141;-67
2022/06/30 01:19:57;;;;;;;5.13;3.95;;;;;;;18.02;67.41;99100.81;4947464;29;20144;-67
2022/06/30 01:22:25;;;;;;;6.60;4.22;;;;;;;18.01;67.82;99098.28;4947132;29;20055;-66
2022/06/30 01:24:52;;;;;;;4.75;3.53;;;;;;;18.01;67.79;99107.13;4919457;29;20191;-67
2022/06/30 01:27:19;;;;;;;8.48;3.90;;;;;;;17.93;68.23;99109.66;4912456;29;20139;-68
2022/06/30 01:29:46;;;;;;;7.55;4.25;;;;;;;17.85;68.26;99106.00;4947029;29;20191;-68
2022/06/30 01:32:12;;;;;;;6.25;3.92;;;;;;;17.73;68.51;99106.09;4948083;29;20776;-67
2022/06/30 01:34:39;;;;;;;4.78;3.25;;;;;;;17.67;68.81;99111.13;4948609;29;20066;-67
2022/06/30 01:37:06;;;;;;;5.90;3.58;;;;;;;17.58;69.29;99110.13;4947628;29;20051;-68
2022/06/30 01:39:36;;;;;;;9.68;4.15;;;;;;;17.52;69.84;99114.19;4946652;29;20059;-68
2022/06/30 01:42:03;;;;;;;5.43;4.28;;;;;;;17.47;70.16;99118.22;4947075;29;20487;-68
2022/06/30 01:44:30;;;;;;;7.43;3.63;;;;;;;17.43;70.18;99124.84;4947724;29;20055;-69
2022/06/30 01:46:56;;;;;;;6.88;4.13;;;;;;;17.42;70.15;99121.31;4947887;29;20066;-67
2022/06/30 01:49:23;;;;;;;5.10;4.35;;;;;;;17.42;69.85;99121.31;4934167;29;20082;-68
2022/06/30 01:51:50;;;;;;;6.15;3.70;;;;;;;17.43;70.35;99119.50;4941983;29;20689;-69
2022/06/30 01:54:16;;;;;;;4.55;3.65;;;;;;;17.43;69.69;99115.00;4946802;29;20094;-68
2022/06/30 01:56:44;;;;;;;4.55;3.70;;;;;;;17.41;70.02;99118.78;4947277;29;20047;-68
2022/06/30 01:59:11;;;;;;;5.43;3.78;;;;;;;17.38;69.78;99120.75;4946428;29;20066;-68
2022/06/30 02:01:38;;;;;;;5.63;4.38;;;;;;;17.43;69.25;99124.84;4943296;28;20046;-68
2022/06/30 02:06:45;;;;;;;10.65;4.30;;;;;;;17.35;69.60;99123.69;4946178;29;20043;-68
2022/06/30 02:09:11;;;;;;;5.30;3.88;;;;;;;17.35;69.33;99123.69;4946275;29;20601;-67
2022/06/30 02:11:38;;;;;;;4.32;3.67;;;;;;;17.37;68.58;99121.69;4947175;29;20051;-66
2022/06/30 02:14:06;;;;;;;6.55;3.63;;;;;;;17.38;68.88;99130.56;4946542;29;20054;-66
2022/06/30 02:16:33;;;;;;;5.53;3.88;;;;;;;17.34;68.97;99129.97;4946537;29;20054;-66
2022/06/30 02:19:00;;;;;;;4.30;3.42;;;;;;;17.26;69.94;99135.13;4945864;29;20056;-66
2022/06/30 02:21:26;;;;;;;10.82;4.18;;;;;;;17.21;70.26;99123.22;4946181;29;20066;-67
2022/06/30 02:23:53;;;;;;;5.65;3.58;;;;;;;17.19;69.73;99115.34;4941727;29;20055;-67
2022/06/30 02:26:20;;;;;;;8.98;3.63;;;;;;;17.20;70.03;99126.84;4928506;29;20052;-67
2022/06/30 02:28:46;;;;;;;8.23;3.80;;;;;;;17.22;69.42;99127.53;4937030;29;20130;-67
2022/06/30 02:31:14;;;;;;;5.55;3.90;;;;;;;17.25;69.47;99130.78;4938943;29;20058;-67
2022/06/30 02:33:41;;;;;;;4.55;3.42;;;;;;;17.23;69.34;99127.41;4946344;29;20519;-67
2022/06/30 02:36:08;;;;;;;4.95;3.60;;;;;;;17.24;69.51;99133.59;4946748;29;20051;-67
2022/06/30 02:38:35;;;;;;;4.40;2.88;;;;;;;17.21;69.28;99129.38;4946764;29;20159;-66
2022/06/30 02:41:01;;;;;;;3.85;3.28;;;;;;;17.19;69.04;99130.50;4945612;29;20495;-66
2022/06/30 02:43:28;;;;;;;6.65;4.60;;;;;;;17.16;69.75;99131.59;4946991;29;20054;-68
2022/06/30 02:45:54;;;;;;;4.53;3.65;;;;;;;17.11;69.72;99128.50;4946366;29;20591;-66
2022/06/30 02:48:22;;;;;;;3.67;3.05;;;;;;;17.10;69.67;99124.13;4946416;29;20127;-66
2022/06/30 02:50:49;;;;;;;5.97;3.47;;;;;;;17.10;69.76;99121.47;4945482;29;20051;-66
2022/06/30 02:53:16;;;;;;;6.90;3.08;;;;;;;17.11;69.26;99123.16;4946003;29;20142;-66
2022/06/30 02:55:42;;;;;;;4.28;3.08;;;;;;;17.09;69.29;99119.78;4946006;29;20426;-67
2022/06/30 02:58:09;;;;;;;9.02;3.88;;;;;;;17.09;69.28;99120.63;4945951;29;20062;-66
2022/06/30 03:00:35;;;;;;;7.15;3.50;;;;;;;17.11;69.37;99117.84;4945119;29;20051;-66
2022/06/30 03:03:02;;;;;;;7.93;3.63;;;;;;;17.08;69.23;99113.63;4946483;29;20054;-66
2022/06/30 03:05:30;;;;;;;10.27;3.45;;;;;;;17.11;68.84;99120.50;4946368;29;20055;-67
2022/06/30 03:07:56;;;;;;;6.68;3.53;;;;;;;17.12;68.54;99122.19;4947882;29;20043;-67
2022/06/30 03:10:23;;;;;;;10.90;3.90;;;;;;;17.06;69.00;99120.06;4947133;29;20059;-67
2022/06/30 03:12:49;;;;;;;8.00;4.30;;;;;;;16.97;69.59;99115.53;4945298;28;20057;-68
2022/06/30 03:15:16;;;;;;;5.30;3.30;;;;;;;16.88;70.02;99112.69;4945773;29;20061;-68
2022/06/30 03:17:43;;;;;;;5.57;3.17;;;;;;;16.87;69.67;99118.13;4945483;29;20050;-67
2022/06/30 03:20:10;;;;;;;5.20;3.47;;;;;;;16.92;69.31;99118.59;4945435;29;20097;-67
2022/06/30 03:22:38;;;;;;;4.57;3.17;;;;;;;16.97;69.32;99116.34;4945490;29;20047;-67
2022/06/30 03:25:05;;;;;;;6.28;3.60;;;;;;;16.95;69.04;99110.31;4931197;29;20576;-67
2022/06/30 03:27:32;;;;;;;7.55;3.78;;;;;;;16.93;69.03;99118.47;4945065;29;20058;-67
2022/06/30 03:29:58;;;;;;;5.07;3.28;;;;;;;16.89;69.17;99117.03;4944397;29;20545;-68
2022/06/30 03:32:25;;;;;;;13.02;4.07;;;;;;;16.87;69.56;99107.50;4945202;29;20055;-68
2022/06/30 03:34:52;;;;;;;6.00;3.50;;;;;;;16.86;68.96;99114.63;4939516;29;20047;-67
2022/06/30 03:37:18;;;;;;;4.45;3.90;;;;;;;16.83;69.51;99109.56;4940728;29;20051;-67
2022/06/30 03:39:46;;;;;;;9.00;3.65;;;;;;;16.88;68.41;99098.50;4944548;29;20058;-67
2022/06/30 03:42:13;;;;;;;3.97;3.35;;;;;;;16.89;68.50;99097.56;4944758;29;20081;-66
2022/06/30 03:44:40;;;;;;;4.72;2.50;;;;;;;16.96;67.66;99101.38;4945680;29;20051;-66
2022/06/30 03:47:07;;;;;;;4.13;3.05;;;;;;;16.98;68.03;99104.72;4945160;29;20558;-68
2022/06/30 03:49:33;;;;;;;5.15;3.03;;;;;;;16.97;67.33;99095.06;4912881;29;20143;-68
2022/06/30 03:52:00;;;;;;;4.28;3.10;;;;;;;16.99;67.75;99101.09;4944314;29;20081;-68
2022/06/30 03:54:27;;;;;;;4.65;3.53;;;;;;;16.99;67.14;99092.28;4943373;29;20059;-68
2022/06/30 03:56:55;;;;;;;3.75;3.03;;;;;;;16.98;66.96;99099.41;4933712;29;20078;-67
2022/06/30 03:59:22;;;;;;;4.00;2.55;;;;;;;17.00;66.53;99099.28;4943806;29;20597;-67
2022/06/30 04:01:49;;;;;;;8.52;2.70;;;;;;;17.04;66.71;99098.03;4944539;29;20134;-67
2022/06/30 04:04:15;;;;;;;3.13;2.40;;;;;;;17.05;66.57;99097.88;4944814;29;20145;-67
2022/06/30 04:06:42;;;;;;;6.80;3.20;;;;;;;17.10;66.60;99100.16;4944202;29;20094;-67
2022/06/30 04:09:09;;;;;;;7.93;2.83;;;;;;;17.14;66.83;99107.75;4944802;29;20071;-67
2022/06/30 04:11:36;;;;;;;4.55;2.88;;;;;;;17.10;67.15;99102.81;4944630;29;20782;-67
2022/06/30 04:14:03;;;;;;;5.20;3.40;;;;;;;17.05;67.30;99100.56;4944966;29;20054;-66
2022/06/30 04:16:30;;;;;;;6.07;2.70;;;;;;;17.08;67.00;99097.66;4944325;29;20047;-67
2022/06/30 04:18:57;;;;;;;6.22;2.88;;;;;;;17.11;67.48;99101.84;4943812;29;20130;-67
2022/06/30 04:21:23;;;;;;;4.50;3.20;;;;;;;17.09;67.71;99099.31;4944077;29;20057;-67
2022/06/30 04:23:50;;;;;;;4.00;2.55;;;;;;;17.12;66.79;99098.22;4939919;28;20056;-66
2022/06/30 04:26:16;;;;;;;5.47;2.88;;;;;;;17.20;66.66;99098.38;4928680;29;20062;-66
2022/06/30 04:28:43;;;;;;;5.45;2.80;;;;;;;17.23;66.76;99094.59;4940966;29;20050;-67
2022/06/30 04:33:55;;;;;;;7.10;3.75;;;;;;;17.38;65.80;99109.25;4947933;29;20106;-66
2022/06/30 04:36:21;;;;;;;8.30;3.22;;;;;;;17.42;65.86;99097.31;4935756;29;20066;-66
2022/06/30 04:38:48;;;;;;;3.72;2.88;;;;;;;17.46;66.06;99097.91;4941935;29;20054;-67
2022/06/30 04:41:25;;;;;;;4.97;3.15;;;;;;;17.50;65.86;99096.63;4948039;29;20057;-68
2022/06/30 04:43:53;;;;;;;4.00;2.95;;;;;;;17.56;65.83;99101.44;4948036;29;20063;-68
2022/06/30 04:46:21;;;;;;;5.70;2.97;;;;;;;17.63;65.79;99093.75;4948088;29;20051;-67
2022/06/30 04:48:48;;;;;;;4.78;2.85;;;;;;;17.65;66.14;99092.63;4947967;29;20528;-66
2022/06/30 04:51:14;;;;;;;4.05;2.53;;;;;;;17.74;65.88;99085.59;4940909;29;20055;-67
2022/06/30 04:53:41;;;;;;;4.88;3.13;;;;;;;17.81;65.88;99090.28;4948265;29;20521;-68
2022/06/30 04:56:08;;;;;;;4.50;3.00;;;;;;;17.90;65.68;99082.44;4948797;29;20570;-67
2022/06/30 04:58:35;;;;;;;5.28;2.90;;;;;;;17.99;65.31;99089.56;4948159;29;20058;-67
2022/06/30 05:01:02;;;;;;;4.68;2.83;;;;;;;18.07;64.50;99089.75;4947730;29;20520;-68
2022/06/30 05:03:31;;;;;;;4.72;2.55;;;;;;;18.17;64.94;99089.75;4948316;29;20058;-66
2022/06/30 05:05:58;;;;;;;6.32;3.13;;;;;;;18.25;65.29;99089.88;4948310;29;20055;-65
2022/06/30 05:08:25;;;;;;;7.20;2.53;;;;;;;18.34;65.45;99088.19;4948166;29;20134;-66
2022/06/30 05:10:52;;;;;;;4.72;2.85;;;;;;;18.45;65.41;99085.34;4946892;29;20054;-66
2022/06/30 05:13:19;;;;;;;5.32;2.72;;;;;;;18.56;65.64;99079.84;4947116;29;20055;-66
2022/06/30 05:15:46;;;;;;;3.95;2.72;;;;;;;18.67;65.47;99074.34;4946925;29;20047;-66
2022/06/30 05:18:13;;;;;;;4.28;2.80;;;;;;;18.81;65.29;99082.91;4947082;29;20110;-68
2022/06/30 05:20:41;;;;;;;3.88;2.20;;;;;;;18.90;65.67;99082.03;4947362;29;20059;-68
2022/06/30 05:23:08;;;;;;;6.32;2.38;;;;;;;19.00;65.49;99079.31;4947429;29;20051;-68
2022/06/30 05:28:21;;;;;;;6.28;2.47;;;;;;;19.26;64.95;99077.66;4947312;29;20061;-67
2022/06/30 05:30:52;;;;;;;8.60;2.83;;;;;;;19.40;64.59;99068.31;4944865;29;20689;-68
2022/06/30 05:33:20;;;;;;;5.25;2.40;;;;;;;19.49;65.05;99064.75;4932457;29;20076;-67
2022/06/30 05:35:48;;;;;;;5.20;2.78;;;;;;;19.60;64.91;99061.00;4947030;28;20055;-66
2022/06/30 05:38:15;;;;;;;5.85;3.42;;;;;;;19.75;62.61;99073.88;4946588;29;20054;-42
2022/06/30 05:40:42;;;;;;;6.18;3.25;;;;;;;20.03;63.03;99082.69;4946640;29;20046;-44
2022/06/30 05:43:11;;;;;;;7.13;2.80;;;;;;;20.35;60.98;99082.97;4947262;29;20135;-46
2022/06/30 05:45:38;;;;;;;6.68;3.35;;;;;;;20.57;60.82;99083.47;4947277;29;20069;-48
2022/06/30 05:48:05;;;;;;;13.18;3.40;;;;;;;20.78;60.21;99088.47;4941673;29;20511;-44
2022/06/30 05:50:32;;;;;;;4.93;2.88;;;;;;;20.99;58.43;99083.59;4946205;29;20178;-45
2022/06/30 05:53:00;;;;;;;5.68;2.80;;;;;;;21.20;56.22;99080.50;4946748;29;20062;-49
2022/06/30 05:55:27;;;;;;;7.80;2.90;;;;;;;21.38;54.23;99085.75;4947133;29;20063;-51
2022/06/30 05:57:56;;;;;;;6.50;3.50;;;;;;;21.58;54.62;99080.97;4946944;29;20051;-48
2022/06/30 06:00:24;;;;;;;11.80;2.70;;;;;;;21.78;54.08;99089.59;4946218;29;20829;-59
2022/06/30 06:02:51;;;;;;;4.85;2.83;;;;;;;22.00;53.26;99085.44;4946703;29;20053;-50
2022/06/30 06:05:19;;;;;;;7.03;3.08;;;;;;;22.20;52.87;99093.19;4945581;29;20055;-51
2022/06/30 06:07:46;;;;;;;3.45;2.30;;;;;;;22.28;51.65;99086.00;4946462;29;20043;-50
2022/06/30 06:10:14;;;;;;;3.85;2.45;;;;;;;22.25;52.03;99091.69;4946009;29;20065;-48
2022/06/30 06:12:43;;;;;;;5.22;3.33;;;;;;;22.19;52.69;99097.69;4947061;29;20142;-48
2022/06/30 06:15:10;;;;;;;5.32;3.13;;;;;;;22.21;52.80;99090.34;4948269;29;20055;-50
2022/06/30 06:17:41;;;;;;;6.10;2.65;;;;;;;22.16;52.56;99092.66;4951344;29;20053;-49
2022/06/30 06:20:09;;;;;;;5.97;2.38;;;;;;;22.27;53.38;99099.56;4947962;29;20094;-48
2022/06/30 06:22:35;;;;;;;5.88;2.78;;;;;;;22.32;52.26;99091.84;4946242;29;20051;-47
2022/06/30 06:25:02;;;;;;;8.63;2.80;;;;;;;22.37;52.38;99100.25;4933262;29;20058;-52
2022/06/30 06:27:30;;;;;;;8.35;3.08;;;;;;;22.47;52.14;99108.13;4946038;29;20054;-47
2022/06/30 06:29:56;;;;;;;11.18;3.33;;;;;;;22.58;51.30;99106.97;4945477;29;20073;-50
2022/06/30 06:32:23;;;;;;;7.47;3.17;;;;;;;22.65;50.90;99105.28;4946272;29;20055;-49
2022/06/30 06:34:50;;;;;;;5.18;3.13;;;;;;;22.73;50.15;99099.88;4941859;29;20051;-46
2022/06/30 06:37:16;;;;;;;6.50;2.85;;;;;;;22.83;49.84;99100.53;4941495;29;20191;-51
2022/06/30 06:39:43;;;;;;;4.47;2.63;;;;;;;22.87;49.66;99104.56;4943863;29;20384;-50
2022/06/30 06:42:09;;;;;;;7.63;2.28;;;;;;;22.92;49.45;99104.06;4934059;29;20134;-51
2022/06/30 06:44:37;;;;;;;13.82;8.00;;;;;;;22.77;48.90;99109.28;4931343;29;20130;-48
2022/06/30 06:47:05;;;;;;;12.52;3.42;;;;;;;22.77;49.22;99103.09;4922488;29;20052;-48
2022/06/30 06:49:31;;;;;;;6.68;2.75;;;;;;;22.92;49.60;99107.56;4923106;29;20062;-51
2022/06/30 06:51:58;;;;;;;4.22;2.40;;;;;;;23.07;48.99;99112.28;4921189;29;20048;-51
2022/06/30 06:54:25;;;;;;;7.38;2.58;;;;;;;23.30;48.87;99125.81;4922709;29;20047;-50
2022/06/30 06:56:51;;;;;;;5.80;2.40;;;;;;;23.41;48.59;99122.75;4930259;29;20815;-50
2022/06/30 06:59:18;;;;;;;7.80;2.80;;;;;;;23.42;48.91;99126.28;4936588;29;20056;-50
2022/06/30 07:01:46;;;;;;;8.63;3.42;;;;;;;23.48;49.28;99126.44;4938550;29;20043;-45
2022/06/30 07:04:13;;;;;;;6.57;2.80;;;;;;;23.52;49.35;99122.34;4944976;29;20142;-48
2022/06/30 07:06:39;;;;;;;7.50;2.97;;;;;;;23.55;49.73;99119.34;4945242;29;20126;-50
2022/06/30 07:09:06;;;;;;;5.70;3.10;;;;;;;23.46;50.26;99127.63;4934984;29;20059;-48
2022/06/30 07:11:32;;;;;;;11.48;3.30;;;;;;;23.29;53.60;99134.91;4934140;29;20138;-48
2022/06/30 07:13:59;;;;;;;10.93;3.45;;;;;;;23.13;53.49;99138.47;4940863;29;20482;-50
2022/06/30 07:16:25;;;;;;;6.90;3.10;;;;;;;23.12;53.05;99144.88;4944715;29;20059;-47
2022/06/30 07:18:53;;;;;;;10.02;3.45;;;;;;;23.19;52.88;99136.97;4944344;29;20154;-50
2022/06/30 07:21:20;;;;;;;4.22;2.90;;;;;;;23.28;52.41;99143.97;4944855;29;20061;-47
2022/06/30 07:23:47;;;;;;;4.72;3.28;;;;;;;23.38;52.47;99146.47;4940653;29;20075;-48
2022/06/30 07:26:13;;;;;;;6.53;2.80;;;;;;;23.50;51.79;99142.38;4937352;29;20847;-46
2022/06/30 07:28:42;;;;;;;7.68;3.13;;;;;;;23.62;51.30;99135.59;4944921;29;20555;-47
2022/06/30 07:31:08;;;;;;;5.13;2.88;;;;;;;23.77;51.58;99146.50;4944942;29;20493;-50
2022/06/30 07:33:35;;;;;;;12.02;2.97;;;;;;;23.95;51.29;99136.31;4945157;29;20043;-47
2022/06/30 07:36:04;;;;;;;5.90;3.08;;;;;;;24.15;50.89;99146.63;4944773;29;20087;-49
2022/06/30 07:38:30;;;;;;;6.90;3.53;;;;;;;24.35;50.64;99147.00;4943763;29;20618;-48
2022/06/30 07:40:57;;;;;;;13.13;4.40;;;;;;;24.60;50.02;99148.47;4934919;29;20043;-48
2022/06/30 07:43:23;;;;;;;6.15;3.75;;;;;;;24.85;48.90;99153.66;4943973;29;20061;-47
2022/06/30 07:45:51;;;;;;;8.43;3.85;;;;;;;25.01;48.89;99152.69;4944492;29;20540;-47
2022/06/30 07:48:18;;;;;;;5.78;3.38;;;;;;;25.03;48.63;99150.59;4944991;29;20122;-45
2022/06/30 07:50:44;;;;;;;7.90;4.00;;;;;;;24.93;48.98;99150.03;4943823;29;20055;-44
2022/06/30 07:53:12;;;;;;;5.57;4.15;;;;;;;24.85;48.78;99150.97;4944274;29;20065;-47
2022/06/30 07:55:39;;;;;;;8.55;3.85;;;;;;;24.79;48.88;99154.41;4944803;29;20126;-47
2022/06/30 07:58:06;;;;;;;10.95;5.90;;;;;;;24.71;48.90;99151.75;4944542;28;20507;-46
2022/06/30 08:00:33;;;;;;;9.90;5.22;;;;;;;24.64;49.05;99149.81;4944235;29;20069;-44
2022/06/30 08:03:00;;;;;;;9.50;5.90;;;;;;;24.57;49.25;99154.25;4944577;29;20051;-48
2022/06/30 08:05:27;;;;;;;13.02;5.22;;;;;;;24.56;49.19;99152.59;4944457;29;20055;-47
2022/06/30 08:07:54;;;;;;;6.70;4.15;;;;;;;24.54;49.14;99154.63;4944437;29;20412;-50
2022/06/30 08:10:22;;;;;;;10.65;4.55;;;;;;;24.51;49.30;99157.66;4943087;29;20584;-45
2022/06/30 08:12:48;;;;;;;5.85;4.40;;;;;;;24.51;49.57;99154.13;4944325;29;20051;-47
2022/06/30 08:15:15;;;;;;;13.50;4.53;;;;;;;24.50;50.11;99161.38;4944210;29;20051;-48
2022/06/30 08:17:42;;;;;;;6.65;4.65;;;;;;;24.49;49.92;99161.53;4936512;29;20048;-47
2022/06/30 08:20:09;;;;;;;7.15;4.57;;;;;;;24.52;49.96;99161.22;4928245;29;20051;-47
2022/06/30 08:22:35;;;;;;;6.25;3.92;;;;;;;24.55;50.11;99167.06;4944359;29;20594;-49
2022/06/30 08:25:03;;;;;;;16.25;5.00;;;;;;;24.57;50.29;99154.25;4921202;29;20058;-62
2022/06/30 08:27:31;;;;;;;11.93;4.80;;;;;;;24.56;50.10;99149.03;4943885;29;20048;-53
2022/06/30 08:29:57;;;;;;;9.07;4.97;;;;;;;24.54;50.72;99154.63;4943174;29;20158;-45
2022/06/30 08:32:24;;;;;;;7.35;4.60;;;;;;;24.62;50.61;99156.41;4943958;29;20047;-43
2022/06/30 08:34:50;;;;;;;13.05;5.40;;;;;;;24.70;50.53;99166.28;4923695;29;20702;-41
2022/06/30 08:37:17;;;;;;;10.07;5.88;;;;;;;24.72;50.79;99156.97;4944342;29;20073;-43
2022/06/30 08:42:31;;;;;;;10.35;6.60;;;;;;;24.81;50.32;99155.91;4944614;29;20699;-43
2022/06/30 08:45:17;;;;;;;16.52;6.10;;;;;;;24.83;50.53;99150.31;4944805;29;20055;-46
2022/06/30 08:47:44;;;;;;;10.00;5.90;;;;;;;24.89;50.60;99154.97;4937230;29;20058;-43
2022/06/30 08:50:13;;;;;;;9.80;5.45;;;;;;;24.96;50.72;99158.63;4943888;29;20065;-42
2022/06/30 08:52:45;;;;;;;8.90;6.05;;;;;;;25.05;49.96;99160.19;4944501;29;20102;-45
2022/06/30 08:55:13;;;;;;;8.88;5.28;;;;;;;25.10;49.99;99169.59;4937696;29;20161;-41
2022/06/30 08:57:41;;;;;;;10.57;5.47;;;;;;;25.16;50.18;99166.19;4944438;29;20788;-42
2022/06/30 09:00:11;;;;;;;15.60;6.93;;;;;;;25.25;49.88;99165.94;4943468;29;20046;-44
2022/06/30 09:02:38;;;;;;;18.52;8.73;;;;;;;25.64;48.45;99163.94;4943990;29;20047;-66
2022/06/30 09:05:11;;;;;;;12.40;6.80;;;;;;;25.94;47.82;99150.41;4943114;29;20434;-69
2022/06/30 09:07:38;;;;;;;15.98;7.57;;;;;;;26.07;47.45;99153.28;4917228;29;20494;-67
2022/06/30 09:10:06;;;;;;;23.85;7.80;;;;;;;26.14;47.29;99154.19;4928971;28;20058;-67
2022/06/30 09:12:33;;;;;;;16.58;6.32;;;;;;;26.35;47.11;99156.91;4937986;29;20155;-67
2022/06/30 09:15:00;;;;;;;12.38;7.50;;;;;;;26.55;46.33;99157.09;4947033;29;20043;-66
2022/06/30 09:17:30;;;;;;;23.08;8.90;;;;;;;26.68;46.01;99155.56;4946909;29;20423;-66
2022/06/30 09:19:59;;;;;;;15.52;6.55;;;;;;;26.76;46.33;99158.97;4946213;29;20479;-67
2022/06/30 09:22:27;;;;;;;20.00;10.88;;;;;;;26.71;45.86;99153.31;4947033;29;20150;-68
2022/06/30 09:24:57;;;;;;;16.38;7.70;;;;;;;27.02;45.30;99151.25;4935336;29;20055;-68
2022/06/30 09:27:24;;;;;;;18.70;8.13;;;;;;;27.36;44.61;99142.34;4948214;29;20130;-67
2022/06/30 09:32:28;;;;;;;11.43;7.10;;;;;;;28.64;41.26;99142.53;5114639;23;20048;-75
2022/06/30 09:35:06;;;;;;;9.75;4.88;;;;;;;29.50;38.72;99131.56;4927835;29;20078;-75
2022/06/30 09:37:34;;;;;;;9.60;5.88;;;;;;;30.12;37.42;99134.63;4924360;29;20051;-75
2022/06/30 09:40:00;;;;;;;13.05;6.53;;;;;;;30.68;36.61;99134.91;4943590;28;20055;-75
2022/06/30 09:42:41;;;;;;;11.82;6.18;;;;;;;31.22;35.55;99138.84;4902207;29;20051;-75
2022/06/30 09:45:10;;;;;;;10.73;5.07;;;;;;;31.53;33.91;99137.03;4909089;29;20048;-75
2022/06/30 09:47:52;;;;;;;6.93;5.05;;;;;;;31.72;33.16;99138.69;4909995;29;20046;-75
2022/06/30 09:50:19;;;;;;;9.50;5.00;;;;;;;31.76;32.87;99137.19;4910030;29;20058;-75
2022/06/30 09:52:46;;;;;;;8.02;3.53;;;;;;;31.58;32.93;99138.03;4908845;29;20058;-74
2022/06/30 09:55:14;;;;;;;6.50;4.40;;;;;;;31.17;33.31;99133.22;4908515;29;20587;-74
2022/06/30 09:57:44;;;;;;;7.60;4.65;;;;;;;31.51;33.30;99133.72;4909902;29;20056;-75
2022/06/30 10:00:14;;;;;;;12.25;4.40;;;;;;;31.79;32.60;99138.59;4899793;29;20799;-76
2022/06/30 10:02:46;;;;;;;11.15;4.22;;;;;;;31.91;32.27;99149.56;4907792;29;20058;-75
2022/06/30 10:05:14;;;;;;;9.95;3.80;;;;;;;32.16;32.10;99144.84;4908596;29;20507;-47
2022/06/30 10:07:40;;;;;;;6.60;3.65;;;;;;;32.11;32.17;99144.69;4908988;29;20056;-44
2022/06/30 10:10:10;;;;;;;13.60;5.07;;;;;;;32.13;31.94;99150.75;4908615;29;20048;-47
2022/06/30 10:12:37;;;;;;;7.75;3.70;;;;;;;31.21;33.50;99148.91;4893003;29;20452;-42
2022/06/30 10:15:07;;;;;;;7.72;3.40;;;;;;;30.91;34.15;99156.09;4908246;29;20635;-45
2022/06/30 10:17:37;;;;;;;9.05;3.95;;;;;;;30.83;34.47;99151.75;4900898;29;20090;-42
2022/06/30 10:20:07;;;;;;;10.18;5.25;;;;;;;30.88;35.25;99153.81;4922692;29;20055;-48
2022/06/30 10:22:33;;;;;;;9.57;4.07;;;;;;;30.57;35.58;99159.06;4925701;29;20054;-46
2022/06/30 10:25:00;;;;;;;7.07;3.88;;;;;;;29.89;36.05;99156.13;4914237;29;20056;-43
2022/06/30 10:27:28;;;;;;;8.48;4.70;;;;;;;29.04;38.13;99158.78;4897660;29;20055;-47
2022/06/30 10:29:58;;;;;;;10.52;5.38;;;;;;;28.80;38.79;99165.72;4914154;29;20051;-42
2022/06/30 10:32:36;;;;;;;10.63;5.65;;;;;;;28.16;40.61;99162.47;4923730;29;20047;-42
2022/06/30 10:35:15;;;;;;;14.23;6.53;;;;;;;29.20;38.97;99154.84;4914127;29;20597;-41
2022/06/30 10:37:48;;;;;;;11.32;6.18;;;;;;;30.35;37.01;99146.91;4908913;29;20058;-49
2022/06/30 10:40:23;;;;;;;13.68;6.75;;;;;;;29.63;37.89;99151.59;4907935;29;20756;-52
2022/06/30 10:42:51;;;;;;;10.48;4.90;;;;;;;29.54;38.52;99145.56;4907851;29;20514;-49
2022/06/30 10:45:53;;;;;;;14.77;7.25;;;;;;;30.09;36.92;99145.13;4907616;29;20059;-75
2022/06/30 10:48:20;;;;;;;12.73;6.47;;;;;;;30.57;36.31;99142.75;4911231;29;20071;-72
2022/06/30 10:50:49;;;;;;;7.53;4.68;;;;;;;31.08;34.90;99137.28;4925761;29;20062;-73
2022/06/30 10:53:18;;;;;;;13.00;4.90;;;;;;;31.73;34.33;99143.09;4908298;29;20418;-72
2022/06/30 10:55:53;;;;;;;8.32;4.78;;;;;;;32.15;33.60;99136.91;4904244;29;20563;-70
2022/06/30 10:58:21;;;;;;;15.10;6.13;;;;;;;32.10;33.29;99140.31;4908698;29;20052;-72
2022/06/30 11:00:59;;;;;;;9.63;5.53;;;;;;;32.00;33.84;99135.44;4907402;29;20052;-75
2022/06/30 11:04:03;;;;;;;10.90;5.97;;;;;;;31.29;34.56;99133.31;4908320;29;20048;-71
2022/06/30 11:07:01;;;;;;;10.52;5.55;;;;;;;30.70;35.99;99127.38;4902333;29;20135;-73
2022/06/30 11:10:07;;;;;;;9.73;5.32;;;;;;;30.04;37.31;99128.66;4908055;29;20044;-73
2022/06/30 11:12:57;;;;;;;17.45;6.28;;;;;;;29.35;39.01;99136.44;4907832;29;20055;-73
2022/06/30 11:15:50;;;;;;;14.27;6.32;;;;;;;28.84;40.01;99135.22;4904420;29;20650;-73
2022/06/30 11:18:19;;;;;;;9.32;5.93;;;;;;;28.66;40.25;99129.63;4900624;29;20056;-73
2022/06/30 11:20:51;;;;;;;8.00;4.50;;;;;;;28.64;40.64;99135.25;4907967;29;20052;-74
2022/06/30 11:23:22;;;;;;;17.88;5.53;;;;;;;28.45;40.96;99122.50;4908442;29;20104;-72
2022/06/30 11:28:35;;;;;;;14.25;5.88;;;;;;;27.79;42.46;99115.03;4926139;29;20103;-72
2022/06/30 11:31:02;;;;;;;11.27;5.88;;;;;;;27.74;41.96;99114.78;4913810;29;20051;-72
2022/06/30 11:33:29;;;;;;;11.70;4.35;;;;;;;27.64;41.92;99112.50;4908516;29;20058;-74
2022/06/30 11:36:06;;;;;;;8.43;4.68;;;;;;;27.68;42.14;99104.78;4908652;29;20060;-75
2022/06/30 11:38:34;;;;;;;9.55;4.25;;;;;;;27.77;42.12;99109.00;4910761;29;20054;-74
2022/06/30 11:43:51;;;;;;;9.68;5.85;;;;;;;27.72;42.90;99092.50;4926334;29;20059;-73
2022/06/30 11:46:18;;;;;;;9.07;5.75;;;;;;;27.83;42.48;99091.94;4917831;29;20448;-72
2022/06/30 11:48:45;;;;;;;13.60;6.20;;;;;;;27.88;41.97;99077.78;4925789;29;20059;-72
2022/06/30 11:51:12;;;;;;;10.38;5.85;;;;;;;27.77;42.41;99073.78;4924456;29;20126;-76
2022/06/30 11:53:41;;;;;;;13.65;8.02;;;;;;;27.41;43.92;99061.34;4906912;29;20511;-74
2022/06/30 11:56:11;;;;;;;14.68;7.57;;;;;;;27.04;44.52;99057.19;4905184;29;20055;-72
2022/06/30 11:59:09;;;;;;;11.93;7.97;;;;;;;27.10;44.16;99046.41;4886546;29;20519;-75
2022/06/30 12:01:35;;;;;;;9.35;5.90;;;;;;;27.14;44.17;99053.06;4921522;29;20047;-72